createdAt,value
2023-03-20T00:00:30.290Z,87.70
2023-03-20T00:01:30.485Z,87.90
2023-03-20T00:02:30.714Z,87.79
2023-03-20T00:03:30.967Z,87.90
2023-03-20T00:04:31.182Z,88.04
2023-03-20T00:05:31.370Z,88.20
2023-03-20T00:06:31.596Z,88.14
2023-03-20T00:07:31.847Z,88.14
2023-03-20T00:08:32.057Z,88.24
2023-03-20T00:09:32.280Z,88.55
2023-03-20T00:10:32.489Z,88.65
2023-03-20T00:11:32.700Z,88.65
2023-03-20T00:12:32.935Z,88.85
2023-03-20T00:13:33.152Z,88.96
2023-03-20T00:14:33.358Z,88.76
2023-03-20T00:15:33.729Z,88.76
2023-03-20T00:16:33.793Z,88.96
2023-03-20T00:17:34.032Z,88.76
2023-03-20T00:18:34.251Z,88.76
2023-03-20T00:19:34.487Z,88.96
2023-03-20T00:20:34.898Z,89.17
2023-03-20T00:21:34.923Z,89.11
2023-03-20T00:22:35.156Z,89.31
2023-03-20T00:23:35.372Z,89.61
2023-03-20T00:24:35.575Z,89.72
2023-03-20T00:25:36.090Z,89.51
2023-03-20T00:26:35.984Z,89.51
2023-03-20T00:27:36.223Z,89.51
2023-03-20T00:28:36.435Z,89.72
2023-03-20T00:29:36.666Z,89.72
2023-03-20T00:30:36.868Z,89.82
2023-03-20T00:31:37.109Z,90.02
2023-03-20T00:32:37.345Z,90.12
2023-03-20T00:33:37.563Z,90.12
2023-03-20T00:34:37.774Z,90.12
2023-03-20T00:35:38.262Z,90.17
2023-03-20T00:36:38.273Z,90.27
2023-03-20T00:37:38.504Z,90.37
2023-03-20T00:38:38.709Z,90.47
2023-03-20T00:39:38.933Z,90.78
2023-03-20T00:40:39.136Z,90.99
2023-03-20T00:41:39.364Z,90.99
2023-03-20T00:42:39.646Z,90.99
2023-03-20T00:43:39.863Z,90.99
2023-03-20T00:44:42.107Z,91.09
2023-03-20T00:45:40.267Z,91.13
2023-03-20T00:46:40.503Z,91.23
2023-03-20T00:47:40.742Z,91.23
2023-03-20T00:48:40.970Z,91.54
2023-03-20T00:49:41.183Z,91.39
2023-03-20T00:50:41.394Z,91.09
2023-03-20T00:51:41.628Z,90.99
2023-03-20T00:52:41.858Z,90.88
2023-03-20T00:53:42.091Z,90.78
2023-03-20T00:54:42.320Z,90.68
2023-03-20T00:55:42.542Z,90.68
2023-03-20T00:56:42.752Z,90.88
2023-03-20T00:57:43.005Z,90.99
2023-03-20T00:58:43.236Z,90.99
2023-03-20T00:59:43.463Z,91.09
2023-03-20T01:00:43.713Z,91.19
2023-03-20T01:01:43.984Z,91.23
2023-03-20T01:02:44.218Z,91.23
2023-03-20T01:03:44.462Z,91.44
2023-03-20T01:04:44.679Z,91.44
2023-03-20T01:05:44.918Z,91.54
2023-03-20T01:06:45.137Z,91.74
2023-03-20T01:07:45.378Z,91.85
2023-03-20T01:08:45.593Z,91.85
2023-03-20T01:09:45.811Z,91.85
2023-03-20T01:10:46.022Z,91.85
2023-03-20T01:11:46.265Z,91.95
2023-03-20T01:12:46.486Z,91.74
2023-03-20T01:13:46.718Z,91.74
2023-03-20T01:14:46.918Z,91.74
2023-03-20T01:15:47.144Z,91.85
2023-03-20T01:16:47.414Z,91.64
2023-03-20T01:17:47.584Z,91.50
2023-03-20T01:18:47.783Z,91.60
2023-03-20T01:19:48.010Z,91.60
2023-03-20T01:20:48.212Z,91.60
2023-03-20T01:21:48.446Z,91.50
2023-03-20T01:22:48.674Z,91.39
2023-03-20T01:23:48.890Z,91.50
2023-03-20T01:24:49.116Z,91.60
2023-03-20T01:25:49.355Z,91.39
2023-03-20T01:26:49.573Z,91.44
2023-03-20T01:27:49.810Z,91.64
2023-03-20T01:28:50.021Z,91.54
2023-03-20T01:29:50.255Z,91.64
2023-03-20T01:30:50.464Z,91.74
2023-03-20T01:31:50.737Z,91.64
2023-03-20T01:32:51.033Z,91.85
2023-03-20T01:33:51.240Z,91.95
2023-03-20T01:34:54.901Z,92.05
2023-03-20T01:35:51.691Z,92.25
2023-03-20T01:36:51.907Z,92.25
2023-03-20T01:37:52.151Z,92.36
2023-03-20T01:38:52.358Z,92.25
2023-03-20T01:39:52.581Z,92.15
2023-03-20T01:40:52.800Z,92.25
2023-03-20T01:41:53.049Z,92.25
2023-03-20T01:42:53.258Z,92.05
2023-03-20T01:43:53.481Z,92.15
2023-03-20T01:44:53.714Z,92.25
2023-03-20T01:45:53.964Z,92.15
2023-03-20T01:46:54.174Z,92.15
2023-03-20T01:47:54.409Z,92.25
2023-03-20T01:48:54.631Z,92.15
2023-03-20T01:49:54.855Z,92.15
2023-03-20T01:50:55.071Z,92.25
2023-03-20T01:51:55.298Z,92.25
2023-03-20T01:52:55.544Z,92.25
2023-03-20T01:53:55.760Z,92.25
2023-03-20T01:54:55.965Z,92.15
2023-03-20T01:55:56.191Z,92.15
2023-03-20T01:56:56.405Z,92.25
2023-03-20T01:57:56.638Z,92.25
2023-03-20T01:58:56.847Z,92.15
2023-03-20T01:59:57.066Z,92.15
2023-03-20T02:00:57.359Z,92.36
2023-03-20T02:01:57.564Z,92.36
2023-03-20T02:02:57.797Z,92.25
2023-03-20T02:03:58.028Z,92.36
2023-03-20T02:04:58.323Z,92.46
2023-03-20T02:05:58.522Z,92.56
2023-03-20T02:06:58.756Z,92.46
2023-03-20T02:07:59.065Z,92.56
2023-03-20T02:08:59.159Z,92.56
2023-03-20T02:09:59.379Z,92.66
2023-03-20T02:10:59.612Z,92.77
2023-03-20T02:11:59.841Z,92.77
2023-03-20T02:13:00.138Z,92.87
2023-03-20T02:14:00.349Z,92.87
2023-03-20T02:15:00.549Z,92.87
2023-03-20T02:16:00.776Z,92.87
2023-03-20T02:17:01.110Z,92.87
2023-03-20T02:18:01.221Z,92.87
2023-03-20T02:19:01.438Z,93.07
2023-03-20T02:20:01.674Z,93.07
2023-03-20T02:21:01.881Z,93.18
2023-03-20T02:22:02.112Z,93.18
2023-03-20T02:23:02.352Z,93.18
2023-03-20T02:24:02.591Z,93.38
2023-03-20T02:25:02.811Z,93.28
2023-03-20T02:26:03.037Z,93.28
2023-03-20T02:27:03.256Z,93.32
2023-03-20T02:28:03.514Z,93.43
2023-03-20T02:29:03.753Z,93.52
2023-03-20T02:30:03.970Z,93.52
2023-03-20T02:31:04.227Z,93.43
2023-03-20T02:32:04.415Z,93.52
2023-03-20T02:33:04.684Z,93.32
2023-03-20T02:34:04.905Z,93.32
2023-03-20T02:35:05.129Z,93.52
2023-03-20T02:36:05.373Z,93.63
2023-03-20T02:37:05.558Z,93.63
2023-03-20T02:38:05.811Z,93.73
2023-03-20T02:39:06.015Z,93.73
2023-03-20T02:40:06.235Z,93.84
2023-03-20T02:41:06.622Z,93.84
2023-03-20T02:42:06.638Z,93.73
2023-03-20T02:43:06.882Z,93.73
2023-03-20T02:44:07.110Z,93.84
2023-03-20T02:45:07.333Z,93.84
2023-03-20T02:46:07.580Z,93.93
2023-03-20T02:47:07.792Z,94.04
2023-03-20T02:48:08.036Z,93.93
2023-03-20T02:49:08.251Z,93.93
2023-03-20T02:50:08.475Z,94.04
2023-03-20T02:51:08.699Z,94.14
2023-03-20T02:52:08.916Z,94.04
2023-03-20T02:53:09.145Z,94.04
2023-03-20T02:54:09.369Z,93.93
2023-03-20T02:55:09.577Z,94.04
2023-03-20T02:56:09.818Z,94.04
2023-03-20T02:57:10.040Z,94.04
2023-03-20T02:58:10.283Z,94.04
2023-03-20T02:59:10.485Z,94.04
2023-03-20T03:00:14.178Z,94.14
2023-03-20T03:01:10.959Z,94.14
2023-03-20T03:02:11.149Z,94.14
2023-03-20T03:03:11.369Z,94.34
2023-03-20T03:04:11.595Z,94.45
2023-03-20T03:05:11.813Z,94.24
2023-03-20T03:06:12.050Z,94.34
2023-03-20T03:07:12.242Z,94.34
2023-03-20T03:08:12.484Z,94.34
2023-03-20T03:09:12.696Z,94.34
2023-03-20T03:10:12.927Z,94.24
2023-03-20T03:11:13.173Z,94.34
2023-03-20T03:12:13.392Z,94.14
2023-03-20T03:13:13.624Z,94.14
2023-03-20T03:14:13.834Z,94.34
2023-03-20T03:15:14.046Z,94.49
2023-03-20T03:16:14.318Z,94.39
2023-03-20T03:17:14.475Z,94.49
2023-03-20T03:18:14.763Z,94.59
2023-03-20T03:19:14.868Z,94.59
2023-03-20T03:20:15.079Z,94.65
2023-03-20T03:21:15.279Z,94.65
2023-03-20T03:22:15.518Z,94.65
2023-03-20T03:23:15.758Z,94.45
2023-03-20T03:24:18.441Z,94.45
2023-03-20T03:25:16.210Z,94.45
2023-03-20T03:26:16.437Z,94.45
2023-03-20T03:27:16.642Z,94.55
2023-03-20T03:28:16.891Z,94.45
2023-03-20T03:29:17.148Z,94.45
2023-03-20T03:30:17.345Z,94.45
2023-03-20T03:31:17.621Z,94.65
2023-03-20T03:32:17.845Z,94.65
2023-03-20T03:33:18.087Z,94.85
2023-03-20T03:34:18.286Z,94.65
2023-03-20T03:35:18.502Z,94.59
2023-03-20T03:36:18.728Z,94.70
2023-03-20T03:37:18.937Z,94.70
2023-03-20T03:38:19.174Z,94.70
2023-03-20T03:39:19.381Z,94.80
2023-03-20T03:40:19.607Z,95.00
2023-03-20T03:41:19.822Z,95.00
2023-03-20T03:42:20.038Z,95.00
2023-03-20T03:43:20.266Z,95.10
2023-03-20T03:44:20.494Z,95.00
2023-03-20T03:45:20.699Z,95.00
2023-03-20T03:46:20.935Z,95.00
2023-03-20T03:47:21.144Z,95.10
2023-03-20T03:48:21.396Z,95.21
2023-03-20T03:49:21.588Z,95.31
2023-03-20T03:50:21.793Z,95.46
2023-03-20T03:51:22.010Z,95.56
2023-03-20T03:52:22.224Z,95.66
2023-03-20T03:53:22.446Z,95.76
2023-03-20T03:54:22.673Z,95.87
2023-03-20T03:55:22.896Z,95.76
2023-03-20T03:56:30.133Z,95.76
2023-03-20T03:57:24.275Z,95.76
2023-03-20T03:58:23.642Z,95.97
2023-03-20T03:59:26.545Z,95.97
2023-03-20T04:00:24.098Z,96.07
2023-03-20T04:01:24.331Z,96.07
2023-03-20T04:02:24.558Z,96.17
2023-03-20T04:03:24.796Z,96.17
2023-03-20T04:04:25.064Z,96.17
2023-03-20T04:05:25.260Z,96.17
2023-03-20T04:06:25.503Z,96.17
2023-03-20T04:07:25.725Z,96.28
2023-03-20T04:08:25.966Z,96.28
2023-03-20T04:09:26.189Z,96.17
2023-03-20T04:10:26.402Z,96.28
2023-03-20T04:11:26.632Z,96.38
2023-03-20T04:12:26.859Z,96.38
2023-03-20T04:13:27.107Z,96.48
2023-03-20T04:14:27.335Z,96.48
2023-03-20T04:15:27.568Z,96.48
2023-03-20T04:16:27.831Z,96.58
2023-03-20T04:17:27.993Z,96.69
2023-03-20T04:18:28.220Z,96.79
2023-03-20T04:19:28.451Z,96.79
2023-03-20T04:20:28.680Z,96.69
2023-03-20T04:21:28.924Z,96.58
2023-03-20T04:22:29.146Z,96.79
2023-03-20T04:23:29.412Z,96.69
2023-03-20T04:24:29.632Z,96.79
2023-03-20T04:25:29.894Z,96.79
2023-03-20T04:26:30.123Z,96.79
2023-03-20T04:27:30.360Z,96.79
2023-03-20T04:28:30.623Z,96.89
2023-03-20T04:29:30.842Z,96.89
2023-03-20T04:30:31.074Z,96.99
2023-03-20T04:31:31.359Z,97.09
2023-03-20T04:32:31.581Z,97.20
2023-03-20T04:33:31.844Z,97.09
2023-03-20T04:34:32.080Z,96.99
2023-03-20T04:35:32.310Z,96.99
2023-03-20T04:36:32.532Z,97.09
2023-03-20T04:37:32.772Z,96.99
2023-03-20T04:38:33.003Z,96.99
2023-03-20T04:39:33.237Z,96.99
2023-03-20T04:40:33.496Z,97.20
2023-03-20T04:41:33.758Z,97.20
2023-03-20T04:42:34.026Z,97.09
2023-03-20T04:43:34.259Z,96.99
2023-03-20T04:44:34.503Z,96.99
2023-03-20T04:45:35.135Z,96.99
2023-03-20T04:46:35.010Z,96.99
2023-03-20T04:47:35.262Z,97.09
2023-03-20T04:48:35.515Z,97.20
2023-03-20T04:49:35.785Z,97.30
2023-03-20T04:50:36.036Z,97.30
2023-03-20T04:51:36.302Z,97.30
2023-03-20T04:52:36.552Z,97.30
2023-03-20T04:53:36.857Z,97.30
2023-03-20T04:54:37.006Z,97.30
2023-03-20T04:55:37.603Z,97.30
2023-03-20T04:56:37.480Z,97.30
2023-03-20T04:57:37.737Z,97.30
2023-03-20T04:58:37.958Z,97.40
2023-03-20T04:59:38.176Z,97.40
2023-03-20T05:00:38.406Z,97.40
2023-03-20T05:01:38.686Z,97.40
2023-03-20T05:02:38.936Z,97.40
2023-03-20T05:03:39.277Z,97.50
2023-03-20T05:04:39.416Z,97.40
2023-03-20T05:05:39.678Z,97.40
2023-03-20T05:06:39.914Z,97.40
2023-03-20T05:07:40.153Z,97.40
2023-03-20T05:08:40.413Z,97.50
2023-03-20T05:09:40.623Z,97.61
2023-03-20T05:10:40.843Z,97.61
2023-03-20T05:11:41.078Z,97.61
2023-03-20T05:12:41.354Z,97.71
2023-03-20T05:13:41.614Z,97.71
2023-03-20T05:14:41.857Z,97.81
2023-03-20T05:15:42.101Z,97.81
2023-03-20T05:16:42.393Z,97.81
2023-03-20T05:17:42.627Z,97.81
2023-03-20T05:18:42.883Z,97.81
2023-03-20T05:19:43.136Z,97.81
2023-03-20T05:20:43.379Z,97.91
2023-03-20T05:21:43.604Z,97.91
2023-03-20T05:22:43.847Z,97.91
2023-03-20T05:23:44.167Z,98.02
2023-03-20T05:24:44.291Z,98.22
2023-03-20T05:25:44.529Z,98.22
2023-03-20T05:26:44.763Z,98.22
2023-03-20T05:27:45.011Z,98.22
2023-03-20T05:28:45.240Z,98.22
2023-03-20T05:29:45.481Z,98.33
2023-03-20T05:30:45.765Z,98.43
2023-03-20T05:31:45.977Z,98.43
2023-03-20T05:32:46.254Z,98.33
2023-03-20T05:33:46.520Z,98.33
2023-03-20T05:34:46.764Z,98.43
2023-03-20T05:35:47.026Z,98.49
2023-03-20T05:36:47.241Z,98.33
2023-03-20T05:37:47.475Z,98.43
2023-03-20T05:38:47.732Z,98.43
2023-03-20T05:39:47.986Z,98.33
2023-03-20T05:40:48.188Z,98.43
2023-03-20T05:41:48.431Z,98.43
2023-03-20T05:42:48.650Z,98.49
2023-03-20T05:43:48.932Z,98.49
2023-03-20T05:44:49.142Z,98.49
2023-03-20T05:45:49.403Z,98.58
2023-03-20T05:46:49.621Z,98.49
2023-03-20T05:47:49.853Z,98.49
2023-03-20T05:48:50.087Z,98.38
2023-03-20T05:49:50.307Z,98.49
2023-03-20T05:50:50.534Z,98.38
2023-03-20T05:51:50.750Z,98.38
2023-03-20T05:52:51.012Z,98.38
2023-03-20T05:53:51.269Z,98.18
2023-03-20T05:54:51.481Z,98.18
2023-03-20T05:55:51.718Z,97.97
2023-03-20T05:56:51.962Z,97.97
2023-03-20T05:57:52.193Z,97.87
2023-03-20T05:58:52.467Z,97.87
2023-03-20T05:59:52.697Z,97.87
2023-03-20T06:00:52.909Z,97.97
2023-03-20T06:01:53.132Z,98.07
2023-03-20T06:02:53.434Z,98.07
2023-03-20T06:03:53.677Z,98.07
2023-03-20T06:04:53.809Z,97.97
2023-03-20T06:05:54.058Z,98.07
2023-03-20T06:06:54.294Z,98.07
2023-03-20T06:07:54.528Z,98.07
2023-03-20T06:08:54.756Z,97.97
2023-03-20T06:09:54.996Z,97.87
2023-03-20T06:10:55.225Z,98.07
2023-03-20T06:11:55.460Z,97.87
2023-03-20T06:12:55.681Z,97.77
2023-03-20T06:13:55.940Z,97.87
2023-03-20T06:14:56.196Z,97.66
2023-03-20T06:15:56.591Z,97.77
2023-03-20T06:16:56.689Z,97.77
2023-03-20T06:17:56.914Z,97.77
2023-03-20T06:18:57.171Z,97.66
2023-03-20T06:19:57.430Z,97.56
2023-03-20T06:20:57.644Z,97.46
2023-03-20T06:21:57.859Z,97.66
2023-03-20T06:22:58.086Z,97.77
2023-03-20T06:23:58.344Z,97.87
2023-03-20T06:24:58.568Z,98.22
2023-03-20T06:25:58.793Z,98.22
2023-03-20T06:26:59.002Z,98.53
2023-03-20T06:27:59.239Z,98.43
2023-03-20T06:28:59.457Z,98.28
2023-03-20T06:29:59.686Z,98.38
2023-03-20T06:30:59.939Z,98.28
2023-03-20T06:32:00.153Z,97.97
2023-03-20T06:33:00.489Z,97.46
2023-03-20T06:34:00.653Z,97.66
2023-03-20T06:35:00.892Z,97.77
2023-03-20T06:36:01.194Z,97.77
2023-03-20T06:37:01.319Z,97.66
2023-03-20T06:38:01.551Z,97.77
2023-03-20T06:39:01.772Z,97.81
2023-03-20T06:40:02.015Z,98.02
2023-03-20T06:41:02.235Z,98.02
2023-03-20T06:42:02.476Z,98.02
2023-03-20T06:43:02.695Z,98.12
2023-03-20T06:44:02.934Z,98.22
2023-03-20T06:45:03.161Z,98.12
2023-03-20T06:46:03.406Z,98.43
2023-03-20T06:47:03.610Z,98.58
2023-03-20T06:48:03.881Z,98.99
2023-03-20T06:49:04.140Z,98.99
2023-03-20T06:50:04.401Z,99.19
2023-03-20T06:51:04.613Z,99.29
2023-03-20T06:52:04.856Z,99.09
2023-03-20T06:53:05.097Z,98.99
2023-03-20T06:54:05.359Z,99.19
2023-03-20T06:55:05.616Z,99.13
2023-03-20T06:56:05.818Z,99.34
2023-03-20T06:57:06.058Z,99.44
2023-03-20T06:58:06.275Z,99.44
2023-03-20T06:59:06.528Z,99.54
2023-03-20T07:00:06.743Z,99.54
2023-03-20T07:01:06.966Z,99.54
2023-03-20T07:02:07.334Z,99.44
2023-03-20T07:03:07.486Z,99.34
2023-03-20T07:04:07.724Z,99.44
2023-03-20T07:05:08.066Z,99.34
2023-03-20T07:06:08.293Z,99.24
2023-03-20T07:07:08.506Z,99.13
2023-03-20T07:08:08.758Z,98.99
2023-03-20T07:09:09.004Z,98.99
2023-03-20T07:10:09.239Z,98.68
2023-03-20T07:11:09.479Z,98.58
2023-03-20T07:12:09.726Z,98.58
2023-03-20T07:13:09.970Z,98.47
2023-03-20T07:14:10.219Z,98.27
2023-03-20T07:15:10.473Z,97.86
2023-03-20T07:16:10.791Z,97.75
2023-03-20T07:17:10.942Z,97.55
2023-03-20T07:18:11.174Z,97.55
2023-03-20T07:19:11.403Z,97.24
2023-03-20T07:20:11.630Z,97.29
2023-03-20T07:21:11.882Z,97.49
2023-03-20T07:22:12.116Z,97.70
2023-03-20T07:23:12.354Z,97.60
2023-03-20T07:24:12.616Z,97.49
2023-03-20T07:25:12.851Z,97.39
2023-03-20T07:26:13.106Z,97.49
2023-03-20T07:27:13.353Z,97.49
2023-03-20T07:28:13.623Z,97.60
2023-03-20T07:29:13.887Z,97.80
2023-03-20T07:30:14.133Z,97.80
2023-03-20T07:31:14.431Z,98.11
2023-03-20T07:32:14.634Z,98.36
2023-03-20T07:33:14.911Z,98.46
2023-03-20T07:34:15.136Z,98.77
2023-03-20T07:35:15.375Z,98.97
2023-03-20T07:36:15.623Z,99.18
2023-03-20T07:37:15.845Z,99.28
2023-03-20T07:38:16.067Z,99.38
2023-03-20T07:39:16.293Z,99.38
2023-03-20T07:40:16.541Z,99.59
2023-03-20T07:41:16.784Z,99.59
2023-03-20T07:42:17.008Z,99.79
2023-03-20T07:43:17.228Z,99.79
2023-03-20T07:44:17.454Z,99.79
2023-03-20T07:45:17.670Z,99.69
2023-03-20T07:46:17.920Z,99.65
2023-03-20T07:47:18.118Z,99.44
2023-03-20T07:48:18.352Z,99.24
2023-03-20T07:49:18.585Z,99.03
2023-03-20T07:50:18.804Z,98.83
2023-03-20T07:51:19.054Z,98.72
2023-03-20T07:52:19.290Z,98.52
2023-03-20T07:53:19.516Z,98.21
2023-03-20T07:54:19.755Z,97.91
2023-03-20T07:55:19.995Z,97.55
2023-03-20T07:56:20.261Z,97.24
2023-03-20T07:57:20.480Z,97.04
2023-03-20T07:58:20.758Z,97.04
2023-03-20T07:59:20.972Z,96.58
2023-03-20T08:00:21.203Z,95.97
2023-03-20T08:01:21.414Z,95.76
2023-03-20T08:02:21.652Z,95.31
2023-03-20T08:03:22.053Z,95.00
2023-03-20T08:04:22.129Z,94.39
2023-03-20T08:05:23.103Z,94.29
2023-03-20T08:06:22.531Z,93.98
2023-03-20T08:07:22.747Z,93.88
2023-03-20T08:08:22.964Z,93.77
2023-03-20T08:09:23.171Z,93.98
2023-03-20T08:10:23.399Z,93.98
2023-03-20T08:11:23.794Z,93.98
2023-03-20T08:12:23.891Z,93.98
2023-03-20T08:13:24.114Z,94.08
2023-03-20T08:14:24.381Z,93.98
2023-03-20T08:15:24.595Z,94.08
2023-03-20T08:16:24.840Z,93.88
2023-03-20T08:17:25.108Z,93.98
2023-03-20T08:18:25.245Z,93.77
2023-03-20T08:19:25.480Z,93.57
2023-03-20T08:20:25.770Z,93.57
2023-03-20T08:21:25.884Z,93.37
2023-03-20T08:22:26.119Z,93.47
2023-03-20T08:23:26.336Z,93.22
2023-03-20T08:24:26.568Z,93.22
2023-03-20T08:25:26.785Z,92.75
2023-03-20T08:26:27.035Z,93.06
2023-03-20T08:27:27.266Z,93.06
2023-03-20T08:28:44.269Z,92.75
2023-03-20T08:29:28.795Z,92.65
2023-03-20T08:30:28.033Z,92.44
2023-03-20T08:31:28.254Z,92.03
2023-03-20T08:32:28.478Z,91.73
2023-03-20T08:33:28.704Z,91.73
2023-03-20T08:34:28.932Z,91.73
2023-03-20T08:35:33.397Z,91.38
2023-03-20T08:36:29.364Z,91.17
2023-03-20T08:37:29.592Z,90.92
2023-03-20T08:38:29.809Z,90.27
2023-03-20T08:39:30.038Z,89.72
2023-03-20T08:40:30.269Z,88.35
2023-03-20T08:41:30.502Z,87.18
2023-03-20T08:42:30.722Z,85.57
2023-03-20T08:43:30.967Z,83.45
2023-03-20T08:44:31.186Z,80.96
2023-03-20T08:45:31.431Z,78.81
2023-03-20T08:46:31.681Z,76.37
2023-03-20T08:47:31.893Z,72.28
2023-03-20T08:48:32.127Z,69.07
2023-03-20T08:49:32.350Z,69.14
2023-03-20T08:50:32.537Z,68.50
2023-03-20T08:51:32.739Z,68.10
2023-03-20T08:52:32.907Z,69.88
2023-03-20T08:53:33.071Z,69.57
2023-03-20T08:54:33.258Z,69.10
2023-03-20T08:55:33.588Z,68.16
2023-03-20T08:56:33.597Z,68.26
2023-03-20T08:57:33.768Z,70.08
2023-03-20T08:58:33.921Z,72.17
2023-03-20T08:59:34.116Z,73.19
2023-03-20T09:00:34.275Z,73.02
2023-03-20T09:01:48.290Z,74.07
2023-03-20T09:02:35.740Z,74.85
2023-03-20T09:03:34.799Z,76.15
2023-03-20T09:04:34.987Z,77.00
2023-03-20T09:05:35.365Z,78.26
2023-03-20T09:06:35.308Z,78.36
2023-03-20T09:07:35.488Z,78.22
2023-03-20T09:08:35.664Z,78.02
2023-03-20T09:09:35.894Z,77.98
2023-03-20T09:10:36.066Z,76.72
2023-03-20T09:11:36.263Z,76.79
2023-03-20T09:12:36.434Z,74.75
2023-03-20T09:13:36.634Z,71.64
2023-03-20T09:14:36.835Z,70.92
2023-03-20T09:15:37.315Z,71.88
2023-03-20T09:16:37.210Z,72.65
2023-03-20T09:17:37.437Z,73.43
2023-03-20T09:18:37.602Z,75.54
2023-03-20T09:19:37.806Z,76.69
2023-03-20T09:20:38.415Z,77.75
2023-03-20T09:21:38.179Z,78.26
2023-03-20T09:22:38.363Z,78.46
2023-03-20T09:23:38.578Z,78.87
2023-03-20T09:24:38.771Z,78.26
2023-03-20T09:25:38.953Z,77.51
2023-03-20T09:26:39.148Z,77.40
2023-03-20T09:27:39.334Z,77.06
2023-03-20T09:28:39.553Z,77.13
2023-03-20T09:29:39.780Z,76.52
2023-03-20T09:30:39.958Z,76.11
2023-03-20T09:31:40.153Z,76.11
2023-03-20T09:32:40.354Z,75.95
2023-03-20T09:33:40.544Z,76.25
2023-03-20T09:34:40.745Z,77.00
2023-03-20T09:35:43.400Z,77.00
2023-03-20T09:36:41.177Z,76.79
2023-03-20T09:37:41.437Z,75.95
2023-03-20T09:38:41.655Z,75.40
2023-03-20T09:39:41.869Z,74.82
2023-03-20T09:40:42.075Z,73.67
2023-03-20T09:41:55.878Z,72.62
2023-03-20T09:42:43.404Z,72.41
2023-03-20T09:43:42.596Z,72.21
2023-03-20T09:44:42.801Z,72.31
2023-03-20T09:45:42.991Z,72.31
2023-03-20T09:46:43.243Z,72.28
2023-03-20T09:47:43.334Z,72.17
2023-03-20T09:48:43.539Z,71.64
2023-03-20T09:49:43.734Z,71.33
2023-03-20T09:50:43.938Z,71.09
2023-03-20T09:51:44.120Z,70.89
2023-03-20T09:52:44.340Z,70.72
2023-03-20T09:53:44.530Z,71.47
2023-03-20T09:54:54.076Z,71.70
2023-03-20T09:55:45.974Z,72.96
2023-03-20T09:56:52.086Z,73.84
2023-03-20T09:57:45.927Z,74.76
2023-03-20T09:58:45.315Z,74.93
2023-03-20T09:59:46.237Z,76.04
2023-03-20T10:00:45.635Z,75.95
2023-03-20T10:01:45.877Z,76.39
2023-03-20T10:02:45.993Z,77.20
2023-03-20T10:03:46.178Z,77.20
2023-03-20T10:04:46.420Z,77.03
2023-03-20T10:05:46.505Z,77.55
2023-03-20T10:06:46.868Z,78.16
2023-03-20T10:07:46.873Z,78.36
2023-03-20T10:08:47.081Z,78.36
2023-03-20T10:09:47.271Z,78.16
2023-03-20T10:10:47.464Z,77.81
2023-03-20T10:11:47.658Z,78.22
2023-03-20T10:12:47.847Z,78.22
2023-03-20T10:13:48.063Z,77.91
2023-03-20T10:14:48.253Z,77.91
2023-03-20T10:15:48.477Z,78.32
2023-03-20T10:16:48.664Z,78.02
2023-03-20T10:17:48.865Z,77.85
2023-03-20T10:18:49.070Z,78.05
2023-03-20T10:19:49.294Z,78.05
2023-03-20T10:20:50.898Z,78.16
2023-03-20T10:21:49.689Z,77.95
2023-03-20T10:22:49.881Z,78.19
2023-03-20T10:23:50.069Z,78.60
2023-03-20T10:24:50.291Z,78.50
2023-03-20T10:25:50.496Z,78.66
2023-03-20T10:26:50.696Z,77.98
2023-03-20T10:27:50.900Z,78.16
2023-03-20T10:28:51.109Z,78.05
2023-03-20T10:29:51.352Z,77.89
2023-03-20T10:30:51.645Z,78.05
2023-03-20T10:31:51.793Z,77.58
2023-03-20T10:32:52.015Z,77.78
2023-03-20T10:33:52.238Z,77.78
2023-03-20T10:34:52.459Z,78.09
2023-03-20T10:35:52.695Z,78.09
2023-03-20T10:36:52.927Z,77.58
2023-03-20T10:37:53.108Z,77.78
2023-03-20T10:38:53.308Z,77.89
2023-03-20T10:39:53.551Z,77.78
2023-03-20T10:40:53.748Z,77.58
2023-03-20T10:41:53.957Z,77.07
2023-03-20T10:42:54.155Z,77.78
2023-03-20T10:43:54.376Z,77.27
2023-03-20T10:44:54.588Z,77.07
2023-03-20T10:45:54.736Z,77.17
2023-03-20T10:46:54.950Z,76.97
2023-03-20T10:47:55.323Z,77.14
2023-03-20T10:48:55.338Z,77.14
2023-03-20T10:49:55.577Z,76.62
2023-03-20T10:50:55.772Z,77.24
2023-03-20T10:51:56.002Z,76.32
2023-03-20T10:52:56.178Z,75.51
2023-03-20T10:53:56.376Z,75.81
2023-03-20T10:54:56.611Z,75.51
2023-03-20T10:55:56.817Z,75.30
2023-03-20T10:56:57.008Z,75.60
2023-03-20T10:57:57.255Z,75.60
2023-03-20T10:58:57.444Z,75.37
2023-03-20T10:59:57.674Z,74.96
2023-03-20T11:00:57.906Z,74.65
2023-03-20T11:01:58.106Z,74.96
2023-03-20T11:02:58.306Z,75.27
2023-03-20T11:03:58.522Z,74.96
2023-03-20T11:04:58.735Z,75.30
2023-03-20T11:06:09.197Z,75.40
2023-03-20T11:07:00.095Z,75.60
2023-03-20T11:07:59.302Z,75.10
2023-03-20T11:08:59.499Z,74.99
2023-03-20T11:09:59.733Z,74.96
2023-03-20T11:10:59.930Z,74.96
2023-03-20T11:12:00.137Z,74.65
2023-03-20T11:13:00.339Z,74.55
2023-03-20T11:14:00.535Z,74.15
2023-03-20T11:15:00.746Z,74.45
2023-03-20T11:16:00.971Z,74.25
2023-03-20T11:17:01.177Z,73.64
2023-03-20T11:18:01.358Z,73.84
2023-03-20T11:19:02.708Z,73.67
2023-03-20T11:20:01.789Z,74.08
2023-03-20T11:21:01.989Z,74.69
2023-03-20T11:22:02.201Z,74.38
2023-03-20T11:23:02.394Z,74.18
2023-03-20T11:24:02.594Z,74.55
2023-03-20T11:25:02.814Z,74.45
2023-03-20T11:26:03.052Z,74.45
2023-03-20T11:27:03.216Z,73.94
2023-03-20T11:28:03.437Z,73.40
2023-03-20T11:29:03.612Z,73.60
2023-03-20T11:30:03.846Z,72.78
2023-03-20T11:31:05.478Z,73.26
2023-03-20T11:32:04.291Z,72.86
2023-03-20T11:33:04.515Z,72.65
2023-03-20T11:34:04.686Z,72.89
2023-03-20T11:35:04.887Z,73.40
2023-03-20T11:36:05.149Z,72.96
2023-03-20T11:37:12.497Z,72.41
2023-03-20T11:38:06.604Z,72.31
2023-03-20T11:39:05.794Z,71.36
2023-03-20T11:40:05.999Z,70.89
2023-03-20T11:41:06.237Z,71.19
2023-03-20T11:42:06.433Z,71.43
2023-03-20T11:43:06.636Z,71.73
2023-03-20T11:44:06.846Z,72.45
2023-03-20T11:45:07.118Z,72.34
2023-03-20T11:46:07.396Z,72.48
2023-03-20T11:47:07.476Z,72.69
2023-03-20T11:48:07.688Z,72.89
2023-03-20T11:49:07.885Z,72.89
2023-03-20T11:50:08.113Z,72.69
2023-03-20T11:51:08.316Z,72.99
2023-03-20T11:52:08.507Z,72.78
2023-03-20T11:53:08.695Z,72.38
2023-03-20T11:54:08.880Z,72.78
2023-03-20T11:55:09.082Z,73.02
2023-03-20T11:56:09.288Z,73.54
2023-03-20T11:57:09.482Z,73.74
2023-03-20T11:58:09.688Z,74.25
2023-03-20T11:59:09.882Z,74.08
2023-03-20T12:00:10.121Z,74.38
2023-03-20T12:01:10.317Z,74.65
2023-03-20T12:02:10.555Z,74.35
2023-03-20T12:03:10.754Z,74.15
2023-03-20T12:04:10.934Z,74.86
2023-03-20T12:05:12.753Z,74.45
2023-03-20T12:06:11.388Z,74.45
2023-03-20T12:07:11.589Z,73.74
2023-03-20T12:08:11.802Z,73.64
2023-03-20T12:09:12.001Z,73.43
2023-03-20T12:10:12.228Z,73.23
2023-03-20T12:11:12.427Z,72.82
2023-03-20T12:12:12.636Z,73.23
2023-03-20T12:13:12.826Z,73.43
2023-03-20T12:14:13.029Z,73.10
2023-03-20T12:15:13.252Z,72.48
2023-03-20T12:16:13.456Z,71.73
2023-03-20T12:17:13.644Z,71.43
2023-03-20T12:18:13.867Z,71.09
2023-03-20T12:19:14.051Z,69.94
2023-03-20T12:20:14.320Z,69.97
2023-03-20T12:21:14.504Z,69.97
2023-03-20T12:22:14.696Z,69.64
2023-03-20T12:23:14.883Z,69.84
2023-03-20T12:24:15.067Z,69.84
2023-03-20T12:25:15.275Z,69.57
2023-03-20T12:26:15.489Z,70.18
2023-03-20T12:27:15.657Z,70.25
2023-03-20T12:28:15.845Z,69.64
2023-03-20T12:29:16.046Z,69.57
2023-03-20T12:30:16.295Z,69.97
2023-03-20T12:31:16.522Z,69.80
2023-03-20T12:32:16.698Z,69.80
2023-03-20T12:33:16.959Z,70.01
2023-03-20T12:34:17.039Z,70.10
2023-03-20T12:35:17.242Z,70.65
2023-03-20T12:36:17.434Z,70.92
2023-03-20T12:37:17.615Z,70.10
2023-03-20T12:38:17.837Z,70.41
2023-03-20T12:39:18.026Z,69.97
2023-03-20T12:40:18.237Z,69.67
2023-03-20T12:41:18.424Z,69.67
2023-03-20T12:42:18.612Z,69.36
2023-03-20T12:43:18.810Z,69.06
2023-03-20T12:44:19.014Z,69.06
2023-03-20T12:45:19.257Z,69.26
2023-03-20T12:46:19.480Z,69.26
2023-03-20T12:47:19.572Z,69.16
2023-03-20T12:48:19.752Z,69.06
2023-03-20T12:49:19.957Z,69.09
2023-03-20T12:50:20.174Z,69.40
2023-03-20T12:51:20.369Z,69.80
2023-03-20T12:52:20.549Z,69.84
2023-03-20T12:53:20.746Z,70.14
2023-03-20T12:54:20.924Z,70.04
2023-03-20T12:55:21.138Z,70.45